Time;durP1;ratioP1;P1;durP2;ratioP2;P2;SDS_P1;SDS_P2;PMS_P1;PMS_P2;Temp;Humidity;BMP_temperature;BMP_pressure;BME280_temperature;BME280_humidity;BME280_pressure;Samples;Min_cycle;Max_cycle;Signal;HPM_P1;HPM_P2
2022/12/01 00:01:50;;;;;;;55.13;32.50;;;5.90;99.90;;;;;;5115645;28;20158;-67
2022/12/01 00:04:15;;;;;;;69.05;37.15;;;5.90;99.90;;;;;;5114613;28;20097;-67
2022/12/01 00:06:41;;;;;;;65.05;35.95;;;5.90;99.90;;;;;;5116268;28;20035;-67
2022/12/01 00:11:52;;;;;;;;;;;5.90;99.90;;;;;;5116826;28;20071;-67
2022/12/01 00:14:17;;;;;;;71.05;36.95;;;5.90;99.90;;;;;;5114395;28;19955;-67
2022/12/01 00:16:43;;;;;;;68.18;38.08;;;5.80;99.90;;;;;;5115314;28;20078;-67
2022/12/01 00:19:09;;;;;;;67.10;37.53;;;5.90;99.90;;;;;;5115844;28;20039;-67
2022/12/01 00:21:35;;;;;;;72.40;37.05;;;5.90;99.90;;;;;;5115023;28;20453;-67
2022/12/01 00:24:00;;;;;;;59.13;33.40;;;5.90;99.90;;;;;;5115355;28;20089;-67
2022/12/01 00:26:27;;;;;;;66.38;37.30;;;5.90;99.90;;;;;;5115336;28;20052;-67
2022/12/01 00:28:57;;;;;;;65.38;36.80;;;5.90;99.90;;;;;;5114658;28;20085;-67
2022/12/01 00:31:24;;;;;;;68.88;38.67;;;5.90;99.90;;;;;;5113325;28;20046;-67
2022/12/01 00:33:50;;;;;;;80.85;40.28;;;5.90;99.90;;;;;;5114398;28;20043;-68
2022/12/01 00:36:16;;;;;;;67.47;37.83;;;5.90;99.90;;;;;;5113848;28;20044;-67
2022/12/01 00:38:41;;;;;;;68.90;37.72;;;5.90;99.90;;;;;;5115354;28;20076;-67
2022/12/01 00:41:07;;;;;;;63.72;34.15;;;5.90;99.90;;;;;;5115142;28;20082;-67
2022/12/01 00:43:33;;;;;;;63.17;36.17;;;5.90;99.90;;;;;;5114295;28;20057;-67
2022/12/01 00:45:59;;;;;;;56.65;33.28;;;5.90;99.90;;;;;;5113467;28;20031;-67
2022/12/01 00:48:25;;;;;;;56.40;32.53;;;5.90;99.90;;;;;;5115129;28;20047;-67
2022/12/01 00:50:52;;;;;;;57.33;33.65;;;5.90;99.90;;;;;;5114600;28;20122;-67
2022/12/01 00:53:18;;;;;;;56.95;31.25;;;5.90;99.90;;;;;;5113720;28;20039;-67
2022/12/01 00:55:43;;;;;;;58.33;32.47;;;5.90;99.90;;;;;;5112972;28;20123;-67
2022/12/01 00:58:09;;;;;;;58.47;34.03;;;6.00;99.90;;;;;;5096112;28;20072;-68
2022/12/01 01:00:37;;;;;;;60.65;34.45;;;5.90;99.90;;;;;;5113922;28;20058;-67
2022/12/01 01:03:05;;;;;;;63.33;34.65;;;5.90;99.90;;;;;;5115483;28;20127;-67
2022/12/01 01:05:34;;;;;;;66.57;37.75;;;5.90;99.90;;;;;;5113389;28;20036;-67
2022/12/01 01:08:00;;;;;;;65.60;35.50;;;5.90;99.90;;;;;;5113885;28;20093;-67
2022/12/01 01:10:26;;;;;;;64.40;35.47;;;5.90;99.90;;;;;;5113294;28;20079;-67
2022/12/01 01:12:51;;;;;;;63.90;35.83;;;5.90;99.90;;;;;;5112955;28;20046;-67
2022/12/01 01:15:18;;;;;;;55.92;32.67;;;5.90;99.90;;;;;;5114452;28;20051;-67
2022/12/01 01:17:43;;;;;;;61.60;33.00;;;5.90;99.90;;;;;;5113688;28;20049;-67
2022/12/01 01:20:09;;;;;;;51.60;30.15;;;5.90;99.90;;;;;;5112248;28;20043;-67
2022/12/01 01:22:35;;;;;;;68.68;38.03;;;5.90;99.90;;;;;;5114724;28;20492;-67
2022/12/01 01:25:01;;;;;;;68.53;35.53;;;5.90;99.90;;;;;;5113482;28;20054;-67
2022/12/01 01:27:26;;;;;;;71.78;36.03;;;5.90;99.90;;;;;;5112401;28;20050;-67
2022/12/01 01:29:52;;;;;;;69.78;37.00;;;5.90;99.90;;;;;;5114928;28;20035;-67
2022/12/01 01:32:18;;;;;;;80.13;41.28;;;5.90;99.90;;;;;;5113264;28;20128;-67
2022/12/01 01:34:44;;;;;;;77.80;38.28;;;5.90;99.90;;;;;;5113758;28;20063;-67
2022/12/01 01:37:10;;;;;;;79.82;40.55;;;5.90;99.90;;;;;;5112625;28;20495;-67
2022/12/01 01:39:35;;;;;;;78.90;38.25;;;5.90;99.90;;;;;;5114422;28;20071;-67
2022/12/01 01:42:01;;;;;;;77.57;38.47;;;5.90;99.90;;;;;;5112459;28;20055;-67
2022/12/01 01:44:48;;;;;;;78.00;39.03;;;5.80;99.90;;;;;;5113811;28;20047;-67
2022/12/01 01:47:26;;;;;;;79.95;40.97;;;5.90;99.90;;;;;;5111804;28;20118;-67
2022/12/01 01:49:54;;;;;;;82.28;40.72;;;5.90;99.90;;;;;;5114324;28;20032;-67
2022/12/01 01:52:21;;;;;;;75.80;39.55;;;5.80;99.90;;;;;;5112611;28;20047;-67
2022/12/01 01:54:51;;;;;;;85.10;43.85;;;5.80;99.90;;;;;;5112425;28;20461;-67
2022/12/01 01:57:23;;;;;;;77.47;40.58;;;5.80;99.90;;;;;;5114237;28;20039;-67
2022/12/01 01:59:56;;;;;;;77.28;41.35;;;5.90;99.90;;;;;;5112664;28;20543;-67
2022/12/01 02:02:22;;;;;;;82.03;42.25;;;5.90;99.90;;;;;;5112798;28;20035;-67
2022/12/01 02:04:53;;;;;;;77.88;40.50;;;5.90;99.90;;;;;;5095436;28;20095;-67
2022/12/01 02:07:19;;;;;;;72.90;38.97;;;5.90;99.90;;;;;;5095118;28;20442;-67
2022/12/01 02:09:45;;;;;;;69.47;38.72;;;5.90;99.90;;;;;;5094862;28;20039;-67
2022/12/01 02:12:23;;;;;;;70.20;41.25;;;5.80;99.90;;;;;;5112019;28;20062;-67
2022/12/01 02:14:58;;;;;;;86.82;40.97;;;5.80;99.90;;;;;;5112461;28;20501;-67
2022/12/01 02:17:38;;;;;;;84.90;42.08;;;5.80;99.90;;;;;;5112647;28;20089;-67
2022/12/01 02:20:41;;;;;;;82.43;40.42;;;5.80;99.90;;;;;;5094948;28;20586;-67
2022/12/01 02:23:30;;;;;;;83.38;41.72;;;5.80;99.90;;;;;;5112657;28;20422;-67
2022/12/01 02:26:02;;;;;;;77.53;41.10;;;5.80;99.90;;;;;;5112425;28;20055;-67
2022/12/01 02:28:44;;;;;;;86.43;41.25;;;5.80;99.90;;;;;;5111569;28;20078;-67
2022/12/01 02:31:26;;;;;;;91.38;43.75;;;5.80;99.90;;;;;;5112188;27;20476;-67
2022/12/01 02:34:17;;;;;;;85.55;43.63;;;5.80;99.90;;;;;;5112072;28;20134;-67
2022/12/01 02:36:53;;;;;;;84.03;42.80;;;5.80;99.90;;;;;;5060295;28;20500;-67
2022/12/01 02:39:41;;;;;;;84.30;44.10;;;5.80;99.90;;;;;;5111729;28;20480;-67
2022/12/01 02:42:48;;;;;;;83.53;42.17;;;5.90;99.90;;;;;;5111592;28;20492;-67
2022/12/01 02:45:05;;;;;;;84.22;40.50;;;5.80;99.90;;;;;;5112397;28;20047;-67
2022/12/01 02:47:33;;;;;;;77.28;40.30;;;5.80;99.90;;;;;;5111897;28;20079;-67
2022/12/01 02:50:00;;;;;;;92.50;44.65;;;5.80;99.90;;;;;;5111938;28;20043;-67
2022/12/01 02:52:28;;;;;;;94.18;46.58;;;5.80;99.90;;;;;;5111139;28;20370;-67
2022/12/01 02:54:55;;;;;;;94.82;46.60;;;5.80;99.90;;;;;;5111693;28;20488;-67
2022/12/01 02:57:22;;;;;;;86.82;42.97;;;5.80;99.90;;;;;;5110781;28;20489;-67
2022/12/01 02:59:52;;;;;;;86.57;43.75;;;5.90;99.90;;;;;;5112020;28;20042;-67
2022/12/01 03:02:27;;;;;;;92.70;44.38;;;5.80;99.90;;;;;;5112721;28;20035;-67
2022/12/01 03:04:59;;;;;;;81.32;41.70;;;5.80;99.90;;;;;;5111038;28;20054;-68
2022/12/01 03:07:58;;;;;;;93.55;45.60;;;5.80;99.90;;;;;;5112253;28;20514;-67
2022/12/01 03:10:43;;;;;;;92.95;43.15;;;5.80;99.90;;;;;;5111274;28;20484;-67
2022/12/01 03:13:28;;;;;;;94.17;45.07;;;5.80;99.90;;;;;;5110797;28;20522;-67
2022/12/01 03:16:27;;;;;;;91.57;44.35;;;5.80;99.90;;;;;;5094508;28;20039;-67
2022/12/01 03:18:59;;;;;;;83.65;42.60;;;5.80;99.90;;;;;;5098760;28;20066;-67
2022/12/01 03:21:42;;;;;;;74.78;39.88;;;5.80;99.90;;;;;;5115483;28;20127;-67
2022/12/01 03:24:13;;;;;;;80.57;41.85;;;5.80;99.90;;;;;;5115445;28;20483;-67
2022/12/01 03:26:43;;;;;;;90.80;45.33;;;5.80;99.90;;;;;;5114967;28;20062;-67
2022/12/01 03:29:14;;;;;;;79.60;43.80;;;5.80;99.90;;;;;;5116819;28;20031;-67
2022/12/01 03:32:22;;;;;;;112.05;46.78;;;5.80;99.90;;;;;;5115909;28;20140;-67
2022/12/01 03:34:57;;;;;;;84.60;41.92;;;5.70;99.90;;;;;;5097874;28;20035;-67
2022/12/01 03:37:36;;;;;;;86.72;42.42;;;5.70;99.90;;;;;;5115165;28;20043;-67
2022/12/01 03:40:05;;;;;;;87.53;41.67;;;5.70;99.90;;;;;;5116167;28;20392;-67
2022/12/01 03:42:43;;;;;;;86.28;44.97;;;5.70;99.90;;;;;;5115681;28;20392;-67
2022/12/01 03:45:16;;;;;;;89.78;41.88;;;5.70;99.90;;;;;;5114776;28;20071;-67
2022/12/01 03:47:43;;;;;;;93.22;46.30;;;5.70;99.90;;;;;;5114536;28;20488;-67
2022/12/01 03:50:12;;;;;;;97.25;42.58;;;5.70;99.90;;;;;;5116424;28;20103;-67
2022/12/01 03:53:18;;;;;;;86.65;45.38;;;5.70;99.90;;;;;;5116480;28;20544;-67
2022/12/01 03:55:49;;;;;;;93.03;45.22;;;5.70;99.90;;;;;;5097625;28;20036;-67
2022/12/01 03:58:25;;;;;;;90.40;44.70;;;5.70;99.90;;;;;;5116224;28;20450;-67
2022/12/01 04:00:54;;;;;;;84.25;42.97;;;5.70;99.90;;;;;;5114416;28;20043;-67
2022/12/01 04:03:23;;;;;;;93.20;44.85;;;5.70;99.90;;;;;;5114888;28;20045;-67
2022/12/01 04:05:50;;;;;;;95.90;43.35;;;5.70;99.90;;;;;;5114898;28;20075;-67
2022/12/01 04:08:15;;;;;;;89.22;43.83;;;5.70;99.90;;;;;;5113711;28;20050;-67
2022/12/01 04:10:41;;;;;;;90.28;42.72;;;5.70;99.90;;;;;;5116260;28;20036;-67
2022/12/01 04:13:14;;;;;;;84.63;43.00;;;5.70;99.90;;;;;;5115843;28;20032;-67
2022/12/01 04:15:40;;;;;;;93.28;46.47;;;5.70;99.90;;;;;;5115295;28;20497;-67
2022/12/01 04:18:06;;;;;;;94.78;47.92;;;5.80;99.90;;;;;;5115807;28;20075;-67
2022/12/01 04:20:32;;;;;;;91.88;47.00;;;5.80;99.90;;;;;;5116063;28;20472;-67
2022/12/01 04:22:57;;;;;;;86.50;45.05;;;5.80;99.90;;;;;;5114151;28;20492;-67
2022/12/01 04:25:23;;;;;;;94.60;45.85;;;5.80;99.90;;;;;;5114213;28;20832;-67
2022/12/01 04:27:49;;;;;;;83.95;44.58;;;5.80;99.90;;;;;;5114466;28;20135;-67
2022/12/01 04:30:14;;;;;;;94.22;44.85;;;5.80;99.90;;;;;;5113091;28;20040;-67
2022/12/01 04:32:42;;;;;;;83.75;41.20;;;5.80;99.90;;;;;;5114675;28;20035;-67
2022/12/01 04:35:10;;;;;;;88.38;45.38;;;5.80;99.90;;;;;;5115422;28;20371;-67
2022/12/01 04:37:37;;;;;;;89.40;43.40;;;5.80;99.90;;;;;;5115088;28;20441;-67
2022/12/01 04:40:03;;;;;;;80.55;42.85;;;5.80;99.90;;;;;;5114346;28;20101;-67
2022/12/01 04:42:29;;;;;;;78.85;40.72;;;5.80;99.90;;;;;;5115460;28;20039;-67
2022/12/01 04:44:54;;;;;;;87.97;44.35;;;5.80;99.90;;;;;;5113418;28;20036;-67
2022/12/01 04:47:20;;;;;;;80.97;42.97;;;5.80;99.90;;;;;;5113544;28;20043;-67
2022/12/01 04:49:46;;;;;;;84.30;43.33;;;5.80;99.90;;;;;;5115666;28;20032;-67
2022/12/01 04:52:11;;;;;;;72.93;39.63;;;5.80;99.90;;;;;;5113006;28;20039;-67
2022/12/01 04:54:37;;;;;;;88.40;45.15;;;5.80;99.90;;;;;;5114134;28;20503;-67
2022/12/01 04:57:02;;;;;;;89.93;44.80;;;5.80;99.90;;;;;;5114841;28;20043;-66
2022/12/01 04:59:28;;;;;;;85.65;45.65;;;5.80;99.90;;;;;;5113814;28;20480;-67
2022/12/01 05:01:54;;;;;;;90.22;46.63;;;5.80;99.90;;;;;;5114150;28;20485;-67
2022/12/01 05:04:21;;;;;;;73.00;38.65;;;5.80;99.90;;;;;;5112843;28;20059;-67
2022/12/01 05:06:46;;;;;;;77.43;41.33;;;5.80;99.90;;;;;;5115185;28;20040;-67
2022/12/01 05:09:14;;;;;;;82.05;42.70;;;5.80;99.90;;;;;;5114564;28;20043;-67
2022/12/01 05:11:40;;;;;;;82.05;41.30;;;5.80;99.90;;;;;;5112928;28;20484;-67
2022/12/01 05:14:06;;;;;;;76.80;40.97;;;5.80;99.90;;;;;;5113376;28;20039;-67
2022/12/01 05:16:32;;;;;;;84.60;43.88;;;5.80;99.90;;;;;;5113844;28;20043;-67
2022/12/01 05:21:47;;;;;;;75.05;41.20;;;5.80;99.90;;;;;;5113513;28;20050;-67
2022/12/01 05:24:13;;;;;;;87.07;43.25;;;5.80;99.90;;;;;;5112825;28;20039;-67
2022/12/01 05:26:40;;;;;;;70.75;37.13;;;5.80;99.90;;;;;;5112265;28;20048;-67
2022/12/01 05:29:07;;;;;;;74.47;40.28;;;5.80;99.90;;;;;;5114348;28;20114;-67
2022/12/01 05:31:33;;;;;;;78.43;43.65;;;5.80;99.90;;;;;;5113626;28;20388;-67
2022/12/01 05:33:59;;;;;;;65.72;36.38;;;5.80;99.90;;;;;;5113011;28;20040;-67
2022/12/01 05:36:25;;;;;;;67.53;38.22;;;5.80;99.90;;;;;;5112875;28;20064;-67
2022/12/01 05:38:51;;;;;;;71.97;37.05;;;5.80;99.90;;;;;;5113486;28;20480;-67
2022/12/01 05:41:16;;;;;;;78.22;38.90;;;5.80;99.90;;;;;;5111194;28;20032;-67
2022/12/01 05:43:42;;;;;;;85.57;42.97;;;5.70;99.90;;;;;;5113331;28;20044;-67
2022/12/01 05:46:08;;;;;;;79.07;40.40;;;5.70;99.90;;;;;;5112205;28;20027;-67
2022/12/01 05:48:33;;;;;;;65.85;35.65;;;5.70;99.90;;;;;;5114190;28;20541;-67
2022/12/01 05:50:59;;;;;;;84.82;42.22;;;5.80;99.90;;;;;;5114371;28;20039;-67
2022/12/01 05:53:25;;;;;;;80.53;41.22;;;5.70;99.90;;;;;;5111798;28;20074;-67
2022/12/01 05:55:52;;;;;;;95.90;49.80;;;5.70;99.90;;;;;;5114424;28;20470;-67
2022/12/01 05:58:18;;;;;;;95.22;54.92;;;5.80;99.90;;;;;;5113992;28;20388;-67
2022/12/01 06:00:44;;;;;;;77.95;43.63;;;5.70;99.90;;;;;;5112607;28;20043;-67
2022/12/01 06:03:09;;;;;;;85.40;55.33;;;5.80;99.90;;;;;;5112808;28;20506;-67
2022/12/01 06:05:35;;;;;;;66.47;39.50;;;5.80;99.90;;;;;;5113836;28;20546;-67
2022/12/01 06:08:01;;;;;;;70.10;40.72;;;5.80;99.90;;;;;;5111751;28;20118;-67
2022/12/01 06:10:26;;;;;;;58.13;31.38;;;5.80;99.90;;;;;;5112242;28;20078;-67
2022/12/01 06:12:52;;;;;;;57.92;36.13;;;5.80;99.90;;;;;;5113960;28;20404;-67
2022/12/01 06:15:18;;;;;;;54.67;28.45;;;5.80;99.90;;;;;;5094432;28;20514;-67
2022/12/01 06:17:44;;;;;;;51.15;29.02;;;5.90;99.90;;;;;;5095549;28;20118;-67
2022/12/01 06:20:10;;;;;;;44.63;26.70;;;5.90;99.90;;;;;;5111975;28;20039;-67
2022/12/01 06:22:36;;;;;;;54.25;27.77;;;5.90;99.90;;;;;;5112961;28;20028;-67
2022/12/01 06:25:03;;;;;;;46.78;26.17;;;5.90;99.90;;;;;;5095506;28;20480;-67
2022/12/01 06:27:28;;;;;;;57.88;30.40;;;5.90;99.90;;;;;;5113394;28;20052;-67
2022/12/01 06:29:54;;;;;;;49.00;27.58;;;5.80;99.90;;;;;;5113188;28;20438;-67
2022/12/01 06:32:20;;;;;;;43.50;25.58;;;5.70;99.90;;;;;;5113358;28;20032;-67
2022/12/01 06:34:45;;;;;;;46.28;25.13;;;5.70;99.90;;;;;;5112411;28;20463;-67
2022/12/01 06:37:14;;;;;;;43.80;24.92;;;5.60;99.90;;;;;;5111207;28;20393;-67
2022/12/01 06:39:40;;;;;;;43.30;26.23;;;5.60;99.90;;;;;;5111972;28;20556;-67
2022/12/01 06:42:05;;;;;;;50.72;27.98;;;5.50;99.90;;;;;;5112992;28;20083;-67
2022/12/01 06:44:31;;;;;;;42.42;23.90;;;5.40;99.90;;;;;;5094150;28;20035;-67
2022/12/01 06:46:57;;;;;;;43.47;24.75;;;5.40;99.90;;;;;;5111813;28;20122;-67
2022/12/01 06:49:22;;;;;;;46.58;25.40;;;5.20;99.90;;;;;;5112860;28;20028;-67
2022/12/01 06:51:49;;;;;;;50.10;27.30;;;5.10;99.90;;;;;;5112651;28;20035;-67
2022/12/01 06:54:16;;;;;;;45.85;26.55;;;5.10;99.90;;;;;;5111913;28;20035;-67
2022/12/01 06:56:43;;;;;;;51.00;27.95;;;5.00;99.90;;;;;;5111324;28;20114;-66
2022/12/01 06:59:08;;;;;;;44.38;25.52;;;4.90;99.90;;;;;;5094593;28;20043;-67
2022/12/01 07:01:34;;;;;;;50.30;25.42;;;4.80;99.90;;;;;;5111916;28;20410;-67
2022/12/01 07:04:00;;;;;;;46.53;24.45;;;4.70;99.90;;;;;;5111196;28;20047;-67
2022/12/01 07:06:28;;;;;;;46.58;25.50;;;4.70;99.90;;;;;;5111445;28;20035;-67
2022/12/01 07:08:54;;;;;;;40.90;23.35;;;4.70;99.90;;;;;;5111853;28;20043;-67
2022/12/01 07:11:20;;;;;;;39.35;22.95;;;4.60;99.90;;;;;;5111899;28;20433;-67
2022/12/01 07:13:45;;;;;;;36.08;23.75;;;4.50;99.90;;;;;;5111689;28;20445;-67
2022/12/01 07:16:11;;;;;;;39.45;23.02;;;4.50;99.90;;;;;;5112252;28;20420;-67
2022/12/01 07:18:37;;;;;;;45.03;24.27;;;4.50;99.90;;;;;;5112360;28;20031;-67
2022/12/01 07:21:13;;;;;;;41.95;23.98;;;4.40;99.90;;;;;;5113065;28;20043;-67
2022/12/01 07:23:39;;;;;;;47.28;27.58;;;4.50;99.90;;;;;;5111728;28;20043;-67
2022/12/01 07:26:09;;;;;;;50.88;25.40;;;4.50;99.90;;;;;;5110395;28;20579;-67
2022/12/01 07:28:35;;;;;;;50.92;26.08;;;4.50;99.90;;;;;;5113004;28;20040;-67
2022/12/01 07:31:06;;;;;;;48.75;25.50;;;4.50;99.90;;;;;;5094509;28;20096;-67
2022/12/01 07:33:31;;;;;;;45.97;23.83;;;4.50;99.90;;;;;;5112480;28;20032;-66
2022/12/01 07:35:57;;;;;;;46.33;26.25;;;4.50;99.90;;;;;;5113058;28;20063;-66
2022/12/01 07:38:23;;;;;;;47.15;25.23;;;4.50;99.90;;;;;;5093939;28;20091;-67
2022/12/01 07:40:49;;;;;;;45.97;25.73;;;4.50;99.90;;;;;;5112037;28;20395;-67
2022/12/01 07:43:14;;;;;;;37.38;21.52;;;4.50;99.90;;;;;;5110838;28;20036;-67
2022/12/01 07:45:40;;;;;;;34.90;21.92;;;4.50;99.90;;;;;;5112866;28;20426;-67
2022/12/01 07:48:06;;;;;;;44.95;26.23;;;4.40;99.90;;;;;;5110723;28;20051;-67
2022/12/01 07:50:31;;;;;;;44.53;25.33;;;4.40;99.90;;;;;;5111318;28;20038;-67
2022/12/01 07:52:57;;;;;;;44.60;24.90;;;4.40;99.90;;;;;;5110858;28;20122;-67
2022/12/01 07:55:23;;;;;;;41.88;24.25;;;4.30;99.90;;;;;;5110817;28;20451;-67
2022/12/01 07:57:48;;;;;;;43.70;25.45;;;4.30;99.90;;;;;;5111179;28;20442;-67
2022/12/01 08:00:15;;;;;;;41.50;24.65;;;4.30;99.90;;;;;;5109936;28;20062;-67
2022/12/01 08:02:41;;;;;;;45.33;25.00;;;4.20;99.90;;;;;;5121761;28;20039;-67
2022/12/01 08:05:07;;;;;;;38.30;23.95;;;4.20;99.90;;;;;;5111927;28;20035;-67
2022/12/01 08:07:33;;;;;;;39.30;23.30;;;4.20;99.90;;;;;;5113910;28;20121;-67
2022/12/01 08:09:59;;;;;;;44.17;25.25;;;4.20;99.90;;;;;;5112627;28;20039;-67
2022/12/01 08:12:25;;;;;;;39.38;25.27;;;4.20;99.90;;;;;;5111815;28;20052;-67
2022/12/01 08:14:50;;;;;;;36.95;22.30;;;4.10;99.90;;;;;;5113313;28;20377;-67
2022/12/01 08:17:16;;;;;;;35.60;20.77;;;4.10;99.90;;;;;;5111525;28;20353;-66
2022/12/01 08:19:42;;;;;;;36.28;22.35;;;4.10;99.90;;;;;;5110918;28;20454;-66
2022/12/01 08:22:07;;;;;;;34.42;21.23;;;4.10;99.90;;;;;;5112479;28;20048;-66
2022/12/01 08:24:33;;;;;;;41.97;22.67;;;4.10;99.90;;;;;;5112247;28;20479;-66
2022/12/01 08:26:59;;;;;;;34.92;20.95;;;4.00;99.90;;;;;;5113269;28;20407;-66
2022/12/01 08:29:24;;;;;;;35.72;20.83;;;4.00;99.90;;;;;;5112120;28;20403;-66
2022/12/01 08:31:50;;;;;;;37.63;20.17;;;4.10;99.90;;;;;;5112340;28;20035;-66
2022/12/01 08:34:16;;;;;;;34.92;21.17;;;4.10;99.90;;;;;;5111161;28;20059;-66
2022/12/01 08:36:42;;;;;;;36.78;21.85;;;4.10;99.90;;;;;;5113151;28;20040;-66
2022/12/01 08:39:08;;;;;;;35.40;22.05;;;4.10;99.90;;;;;;5112052;28;20066;-66
2022/12/01 08:41:33;;;;;;;38.05;21.60;;;4.10;99.90;;;;;;5111722;28;20046;-66
2022/12/01 08:43:59;;;;;;;39.60;22.65;;;4.10;99.90;;;;;;5094455;28;20044;-66
2022/12/01 08:46:27;;;;;;;32.95;19.63;;;4.10;99.90;;;;;;5110997;28;20124;-66
2022/12/01 08:48:53;;;;;;;42.83;21.90;;;4.10;99.90;;;;;;5112359;28;20058;-66
2022/12/01 08:51:19;;;;;;;31.95;20.15;;;4.20;99.90;;;;;;5111002;28;20043;-67
2022/12/01 08:53:47;;;;;;;38.80;21.30;;;4.20;99.90;;;;;;5111818;28;20034;-67
2022/12/01 08:56:20;;;;;;;32.30;18.55;;;4.20;99.90;;;;;;5111343;28;20061;-67
2022/12/01 08:58:45;;;;;;;33.95;19.88;;;4.30;99.90;;;;;;5112099;28;20546;-67
2022/12/01 09:01:13;;;;;;;37.28;20.85;;;4.40;99.90;;;;;;5111809;28;20044;-67
2022/12/01 09:03:40;;;;;;;36.20;20.48;;;4.40;99.90;;;;;;5093992;28;20093;-67
2022/12/01 09:06:07;;;;;;;34.05;18.85;;;4.40;99.90;;;;;;5112867;28;20508;-67
2022/12/01 09:08:34;;;;;;;30.92;18.42;;;4.40;99.90;;;;;;5111988;27;20081;-67
2022/12/01 09:11:05;;;;;;;32.63;20.50;;;4.40;99.90;;;;;;5108785;28;20040;-67
2022/12/01 09:13:33;;;;;;;37.38;22.75;;;4.50;99.90;;;;;;5111842;28;20044;-67
2022/12/01 09:16:01;;;;;;;33.10;19.08;;;4.50;99.90;;;;;;5111545;28;20036;-67
2022/12/01 09:18:27;;;;;;;36.05;21.08;;;4.50;99.90;;;;;;5109297;28;20890;-67
2022/12/01 09:20:54;;;;;;;25.98;17.67;;;4.60;99.90;;;;;;5110048;28;20205;-67
2022/12/01 09:23:20;;;;;;;32.13;19.70;;;4.60;99.90;;;;;;5088653;28;20040;-67
2022/12/01 09:25:47;;;;;;;27.02;16.58;;;4.60;99.90;;;;;;5108778;28;20052;-67
2022/12/01 09:28:13;;;;;;;25.60;15.65;;;4.70;99.90;;;;;;5110313;28;20062;-67
2022/12/01 09:30:40;;;;;;;29.05;15.20;;;4.70;99.90;;;;;;5101146;27;20044;-66
2022/12/01 09:33:06;;;;;;;28.08;16.73;;;4.80;99.90;;;;;;5108149;28;20052;-66
2022/12/01 09:35:32;;;;;;;27.45;13.77;;;4.90;99.90;;;;;;5110433;28;20043;-67
2022/12/01 10:03:54;;;;;;;19.95;12.13;;;5.60;99.90;;;;;;5110096;28;20061;-67
2022/12/01 10:06:28;;;;;;;23.00;15.68;;;5.80;99.90;;;;;;5110814;28;20063;-67
2022/12/01 10:09:13;;;;;;;18.25;11.27;;;5.90;99.90;;;;;;5111064;28;20044;-67
2022/12/01 10:11:44;;;;;;;22.98;16.38;;;5.90;99.90;;;;;;5109653;28;20039;-66
2022/12/01 10:14:17;;;;;;;22.35;14.00;;;6.00;99.90;;;;;;5110326;28;20548;-67
2022/12/01 10:16:58;;;;;;;19.95;12.52;;;6.00;99.90;;;;;;5111708;28;20097;-67
2022/12/01 10:19:34;;;;;;;20.55;10.70;;;6.10;99.90;;;;;;5108588;28;20038;-67
2022/12/01 10:22:09;;;;;;;17.67;10.57;;;6.10;99.90;;;;;;5108231;28;20051;-67
2022/12/01 10:25:04;;;;;;;18.05;10.93;;;6.20;99.90;;;;;;5110706;28;20082;-67
2022/12/01 10:27:42;;;;;;;17.08;10.63;;;6.30;99.90;;;;;;5108729;28;20059;-67
2022/12/01 10:30:21;;;;;;;24.23;12.60;;;6.40;99.90;;;;;;5107532;28;20047;-67
2022/12/01 10:32:56;;;;;;;17.95;10.77;;;6.50;99.90;;;;;;5109663;28;20044;-67
2022/12/01 10:35:34;;;;;;;19.02;11.55;;;6.60;99.90;;;;;;5108646;28;20054;-67
2022/12/01 10:38:04;;;;;;;18.10;10.38;;;6.70;99.90;;;;;;5109630;28;20051;-67
2022/12/01 10:40:33;;;;;;;19.35;10.80;;;6.80;99.90;;;;;;5109514;28;20040;-67
2022/12/01 10:43:00;;;;;;;16.58;10.40;;;6.90;99.90;;;;;;5109033;28;20051;-67
2022/12/01 10:45:34;;;;;;;18.42;11.95;;;7.00;99.90;;;;;;5109792;28;20130;-67
2022/12/01 10:48:14;;;;;;;14.10;9.25;;;7.10;99.90;;;;;;5105878;28;20092;-67
2022/12/01 10:50:42;;;;;;;15.93;9.75;;;7.20;99.90;;;;;;5105616;28;20551;-67
2022/12/01 10:53:29;;;;;;;16.33;10.65;;;7.20;99.90;;;;;;5109388;28;20047;-68
2022/12/01 10:55:58;;;;;;;16.45;9.50;;;7.30;99.90;;;;;;5108464;28;20137;-67
2022/12/01 10:58:24;;;;;;;15.68;9.52;;;7.30;99.90;;;;;;5109856;28;20046;-68
2022/12/01 11:01:00;;;;;;;18.48;12.40;;;7.30;99.90;;;;;;5109686;28;20052;-67
2022/12/01 11:03:31;;;;;;;16.08;10.63;;;7.30;99.90;;;;;;5108381;28;20044;-67
2022/12/01 11:06:00;;;;;;;15.27;8.90;;;7.40;99.90;;;;;;5110020;28;20069;-67
2022/12/01 11:08:51;;;;;;;18.05;10.38;;;7.40;99.90;;;;;;5109140;28;20032;-67
2022/12/01 11:11:32;;;;;;;17.35;10.38;;;7.50;99.90;;;;;;5092874;28;20034;-65
2022/12/01 11:14:01;;;;;;;17.20;11.48;;;7.50;99.90;;;;;;5110692;28;20046;-66
2022/12/01 11:16:37;;;;;;;15.68;9.40;;;7.60;99.90;;;;;;5110603;28;20085;-66
2022/12/01 11:19:19;;;;;;;14.20;8.93;;;7.60;99.90;;;;;;5110156;28;20032;-68
2022/12/01 11:21:50;;;;;;;14.95;8.93;;;7.60;99.90;;;;;;5112799;28;20046;-67
2022/12/01 11:24:54;;;;;;;20.92;12.70;;;7.60;99.90;;;;;;5111277;28;20039;-67
2022/12/01 11:27:25;;;;;;;16.35;10.07;;;7.60;99.90;;;;;;5110603;28;20127;-67
2022/12/01 11:29:55;;;;;;;16.55;9.35;;;7.50;99.90;;;;;;5094217;28;20044;-67
2022/12/01 11:32:22;;;;;;;35.40;22.83;;;7.50;99.90;;;;;;5109467;28;20082;-66
2022/12/01 11:34:55;;;;;;;25.23;17.98;;;7.50;99.90;;;;;;5112556;28;20031;-67
2022/12/01 11:37:25;;;;;;;19.73;13.95;;;7.50;99.90;;;;;;5112065;28;20392;-67
2022/12/01 11:39:52;;;;;;;17.10;11.90;;;7.50;99.90;;;;;;5110968;28;20039;-67
2022/12/01 11:42:28;;;;;;;17.77;12.38;;;7.40;99.90;;;;;;5109762;28;20043;-67
2022/12/01 11:44:59;;;;;;;15.93;11.50;;;7.40;99.90;;;;;;5094873;28;20451;-67
2022/12/01 11:47:27;;;;;;;15.27;10.82;;;7.30;99.90;;;;;;5112088;28;20043;-68
2022/12/01 11:49:59;;;;;;;16.77;10.48;;;7.20;99.90;;;;;;5110815;28;20058;-68
2022/12/01 11:52:33;;;;;;;16.30;10.82;;;7.20;99.90;;;;;;5094596;28;20047;-68
2022/12/01 11:55:11;;;;;;;17.20;9.77;;;7.20;99.90;;;;;;5095173;28;20527;-67
2022/12/01 11:57:42;;;;;;;16.63;8.60;;;7.10;99.90;;;;;;5114581;28;20392;-67
2022/12/01 12:00:16;;;;;;;18.52;10.43;;;7.10;99.90;;;;;;5096237;28;20110;-67
2022/12/01 12:03:03;;;;;;;16.50;11.02;;;7.10;99.90;;;;;;5112801;28;20040;-66
2022/12/01 12:06:05;;;;;;;17.30;10.90;;;7.10;99.90;;;;;;5097810;28;20131;-66
2022/12/01 12:08:50;;;;;;;19.40;11.32;;;7.10;99.90;;;;;;5114101;28;20065;-67
2022/12/01 12:11:15;;;;;;;15.57;10.48;;;7.10;99.90;;;;;;5112444;28;20047;-67
2022/12/01 12:13:53;;;;;;;14.77;9.50;;;7.00;99.90;;;;;;5114104;28;20039;-67
2022/12/01 12:16:45;;;;;;;15.80;10.85;;;7.00;99.90;;;;;;5114060;28;20039;-67
2022/12/01 12:19:33;;;;;;;16.63;9.88;;;7.00;99.90;;;;;;5114392;28;20130;-67
2022/12/01 12:22:23;;;;;;;17.25;10.73;;;7.00;99.90;;;;;;5114127;28;20094;-68
2022/12/01 12:24:56;;;;;;;18.92;10.95;;;7.10;99.90;;;;;;5113317;28;20043;-67
2022/12/01 12:27:59;;;;;;;17.95;9.20;;;7.10;99.90;;;;;;5110148;28;20154;-67
2022/12/01 12:30:29;;;;;;;15.95;9.18;;;7.20;99.90;;;;;;5083211;28;20047;-67
2022/12/01 12:33:13;;;;;;;16.17;8.35;;;7.30;99.90;;;;;;5094885;28;20085;-66
2022/12/01 12:36:03;;;;;;;15.95;10.38;;;7.40;99.90;;;;;;5113054;28;20036;-66
2022/12/01 12:38:42;;;;;;;14.73;8.80;;;7.40;99.90;;;;;;5095167;28;20040;-66
2022/12/01 12:41:23;;;;;;;18.17;10.07;;;7.50;99.90;;;;;;5113482;28;20071;-66
2022/12/01 12:43:49;;;;;;;15.10;9.75;;;7.50;99.90;;;;;;5115825;28;20092;-65
2022/12/01 12:46:56;;;;;;;16.55;9.70;;;7.50;99.90;;;;;;5114888;28;20036;-65
2022/12/01 12:49:42;;;;;;;15.75;9.43;;;7.40;99.90;;;;;;5113734;28;20048;-66
2022/12/01 12:52:34;;;;;;;15.20;9.63;;;7.40;99.90;;;;;;5112141;28;20039;-66
2022/12/01 12:55:04;;;;;;;19.13;10.13;;;7.40;99.90;;;;;;5096987;28;20039;-66
2022/12/01 12:57:32;;;;;;;16.75;10.30;;;7.40;99.90;;;;;;5113318;28;20039;-66
2022/12/01 13:00:17;;;;;;;18.60;10.63;;;7.40;99.90;;;;;;5113959;28;20051;-66
2022/12/01 13:03:04;;;;;;;17.40;10.27;;;7.40;99.90;;;;;;5113538;28;20043;-66
2022/12/01 13:05:43;;;;;;;16.67;10.07;;;7.40;99.90;;;;;;5115507;28;20043;-66
2022/12/01 13:08:22;;;;;;;16.40;9.25;;;7.40;99.90;;;;;;5114639;28;20043;-66
2022/12/01 13:11:02;;;;;;;16.45;9.93;;;7.40;99.90;;;;;;5114493;28;20080;-66
2022/12/01 13:13:49;;;;;;;14.52;8.40;;;7.50;99.90;;;;;;5113329;28;20046;-66
2022/12/01 13:16:21;;;;;;;18.48;10.35;;;7.50;99.90;;;;;;5114316;28;20031;-66
2022/12/01 13:19:12;;;;;;;15.40;9.10;;;7.50;99.90;;;;;;5113636;28;20081;-66
2022/12/01 13:21:46;;;;;;;15.95;9.25;;;7.40;99.90;;;;;;5115113;28;20036;-66
2022/12/01 13:24:19;;;;;;;14.82;9.20;;;7.40;99.90;;;;;;5113504;27;20082;-66
2022/12/01 13:26:48;;;;;;;17.63;10.50;;;7.40;99.90;;;;;;5113075;28;20104;-66
2022/12/01 13:29:17;;;;;;;19.00;11.50;;;7.40;99.90;;;;;;5114400;28;20035;-66